Capitan Av. Salvador Ogaya G. airport


Codes: SLPS/PSZ
Name: Capitan Av. Salvador Ogaya G. airport
City: Puerto Suarez
Country: Bolivia
Elevation: 505 ft.
Wikipedia:

Photos at Capitan Av. Salvador Ogaya G. airport


   Photos courtesy of SpottingLog. You can add your own sightings and photos by signing up for a free trial today.



No photos found.

Weather at Capitan Av. Salvador Ogaya G. airport


Time (UTC)DescriptionTempratureWindCloud coverageVisibilityPressureHumidity
19-Apr-2024 03:00Overcast Clouds20°C2 mph, S100%10000m1014hPa51%
19-Apr-2024 06:00Overcast Clouds20°C2 mph, S91%10000m1014hPa53%
19-Apr-2024 09:00Scattered Clouds19°C0 mph, NW34%10000m1013hPa57%
19-Apr-2024 12:00Clear Sky23°C0 mph, NE1%10000m1015hPa50%
19-Apr-2024 15:00Clear Sky31°C2 mph, E0%10000m1014hPa35%
19-Apr-2024 18:00Clear Sky33°C4 mph, E0%10000m1010hPa38%
19-Apr-2024 21:00Clear Sky29°C4 mph, SE0%10000m1009hPa55%
20-Apr-2024 00:00Clear Sky25°C4 mph, E1%10000m1011hPa68%
20-Apr-2024 03:00Clear Sky24°C4 mph, E0%10000m1011hPa71%
20-Apr-2024 06:00Clear Sky23°C4 mph, E3%10000m1011hPa74%
20-Apr-2024 09:00Clear Sky23°C4 mph, NE6%10000m1011hPa80%
20-Apr-2024 12:00Clear Sky27°C4 mph, NE6%10000m1013hPa67%
20-Apr-2024 15:00Clear Sky34°C4 mph, NE0%10000m1012hPa47%
20-Apr-2024 18:00Scattered Clouds32°C2 mph, E34%10000m1009hPa54%
20-Apr-2024 21:00Broken Clouds30°C4 mph, E75%10000m1008hPa62%
21-Apr-2024 00:00Broken Clouds29°C4 mph, E80%10000m1010hPa61%
21-Apr-2024 03:00Few Clouds26°C4 mph, E24%10000m1011hPa76%
21-Apr-2024 06:00Scattered Clouds26°C4 mph, E27%10000m1010hPa76%
21-Apr-2024 09:00Broken Clouds25°C4 mph, E65%10000m1010hPa84%
21-Apr-2024 12:00Scattered Clouds28°C4 mph, NE44%10000m1011hPa71%
21-Apr-2024 15:00Clear Sky36°C4 mph, NE9%10000m1011hPa42%
21-Apr-2024 18:00Light Rain32°C4 mph, NE45%10000m1007hPa54%
21-Apr-2024 21:00Overcast Clouds31°C2 mph, NE94%10000m1007hPa60%
22-Apr-2024 00:00Broken Clouds28°C2 mph, E80%10000m1008hPa66%
22-Apr-2024 03:00Scattered Clouds27°C2 mph, NE46%10000m1009hPa66%
22-Apr-2024 06:00Scattered Clouds26°C2 mph, E33%10000m1008hPa71%
22-Apr-2024 09:00Broken Clouds26°C2 mph, NE80%10000m1009hPa75%
22-Apr-2024 12:00Broken Clouds29°C7 mph, N56%10000m1010hPa65%
22-Apr-2024 15:00Clear Sky35°C9 mph, N6%10000m1009hPa42%
22-Apr-2024 18:00Scattered Clouds34°C7 mph, N41%10000m1006hPa45%
22-Apr-2024 21:00Broken Clouds32°C4 mph, N72%10000m1006hPa52%
23-Apr-2024 00:00Broken Clouds29°C4 mph, NE61%10000m1007hPa60%
23-Apr-2024 03:00Broken Clouds28°C0 mph, NE73%10000m1009hPa66%
23-Apr-2024 06:00Light Rain25°C0 mph, N77%10000m1009hPa87%
23-Apr-2024 09:00Light Rain25°C2 mph, E91%10000m1010hPa88%
23-Apr-2024 12:00Overcast Clouds26°C2 mph, NE96%10000m1012hPa86%
23-Apr-2024 15:00Broken Clouds35°C4 mph, N64%10000m1011hPa42%
23-Apr-2024 18:00Broken Clouds35°C4 mph, N61%10000m1007hPa42%
23-Apr-2024 21:00Overcast Clouds32°C4 mph, NE97%10000m1007hPa53%
24-Apr-2024 00:00Overcast Clouds30°C4 mph, NE99%10000m1009hPa54%